Time;durP1;ratioP1;P1;durP2;ratioP2;P2;SDS_P1;SDS_P2;PMS_P1;PMS_P2;Temp;Humidity;BMP_temperature;BMP_pressure;BME280_temperature;BME280_humidity;BME280_pressure;Samples;Min_cycle;Max_cycle;Signal;HPM_P1;HPM_P2
2023/03/14 00:30:40;;;;;;;9.87;4.63;;;;;;;;;;6216393;22;20219;-90
2023/03/14 00:33:47;;;;;;;14.33;4.90;;;;;;;;;;6228938;23;20218;-93
2023/03/14 00:36:53;;;;;;;9.23;4.67;;;;;;;;;;6228696;23;20175;-89
2023/03/14 00:39:58;;;;;;;7.83;4.63;;;;;;;;;;6228947;23;20159;-93
2023/03/14 00:43:04;;;;;;;7.97;4.17;;;;;;;;;;6229020;23;20223;-92
2023/03/14 00:46:11;;;;;;;10.17;4.70;;;;;;;;;;6228592;23;20167;-90
2023/03/14 00:49:16;;;;;;;9.50;4.63;;;;;;;;;;6229196;23;20171;-90
2023/03/14 00:52:22;;;;;;;10.13;4.70;;;;;;;;;;6227400;23;20209;-89
2023/03/14 00:55:27;;;;;;;12.20;4.20;;;;;;;;;;6227211;23;20179;-91
2023/03/14 00:58:32;;;;;;;11.83;4.07;;;;;;;;;;6229275;23;20199;-93
2023/03/14 01:01:42;;;;;;;10.67;4.47;;;;;;;;;;6228315;23;20179;-91
2023/03/14 01:04:49;;;;;;;7.57;4.13;;;;;;;;;;6230552;23;20159;-90
2023/03/14 01:07:54;;;;;;;8.47;3.90;;;;;;;;;;6228855;23;20167;-91
2023/03/14 01:10:59;;;;;;;9.30;3.87;;;;;;;;;;6228790;23;20167;-92
2023/03/14 01:14:08;;;;;;;8.60;3.77;;;;;;;;;;6228459;23;20168;-91
2023/03/14 01:17:15;;;;;;;10.90;4.27;;;;;;;;;;6229309;23;20237;-91
2023/03/14 01:20:21;;;;;;;8.90;3.93;;;;;;;;;;6229372;23;20171;-91
2023/03/14 01:23:26;;;;;;;12.97;3.73;;;;;;;;;;6229933;23;20171;-89
2023/03/14 01:26:33;;;;;;;11.50;4.10;;;;;;;;;;6229974;23;20178;-91
2023/03/14 01:29:38;;;;;;;9.43;3.97;;;;;;;;;;6230816;23;20238;-94
2023/03/14 01:32:45;;;;;;;10.33;4.30;;;;;;;;;;6230823;23;20247;-91
2023/03/14 01:35:51;;;;;;;9.83;3.97;;;;;;;;;;6230651;23;20170;-93
2023/03/14 01:38:56;;;;;;;10.80;4.40;;;;;;;;;;6229105;23;20167;-93
2023/03/14 01:42:02;;;;;;;9.87;4.27;;;;;;;;;;6230303;23;20210;-89
2023/03/14 01:45:28;;;;;;;7.50;3.67;;;;;;;;;;6232329;23;20217;-90
2023/03/14 01:48:37;;;;;;;7.23;3.53;;;;;;;;;;6231046;23;20202;-90
2023/03/14 01:51:45;;;;;;;10.60;4.03;;;;;;;;;;6232421;23;20175;-92
2023/03/14 01:54:52;;;;;;;8.00;3.70;;;;;;;;;;6229793;23;20159;-91
2023/03/14 01:57:58;;;;;;;9.40;3.83;;;;;;;;;;6228911;23;20222;-92
2023/03/14 02:01:08;;;;;;;9.97;3.90;;;;;;;;;;6229084;23;20244;-92
2023/03/14 02:04:14;;;;;;;9.77;4.07;;;;;;;;;;6228597;23;20274;-90
2023/03/14 02:07:24;;;;;;;12.90;4.57;;;;;;;;;;6228443;23;20238;-92
2023/03/14 02:10:40;;;;;;;10.37;4.17;;;;;;;;;;6229268;23;20202;-90
2023/03/14 02:17:53;;;;;;;6.77;3.77;;;;;;;;;;6230001;23;20179;-89
2023/03/14 02:25:38;;;;;;;12.13;3.87;;;;;;;;;;6227572;23;20178;-91
2023/03/14 02:28:45;;;;;;;8.73;3.77;;;;;;;;;;6227835;23;20195;-91
2023/03/14 02:31:51;;;;;;;9.73;3.80;;;;;;;;;;6229066;23;20207;-91
2023/03/14 02:34:56;;;;;;;10.50;4.50;;;;;;;;;;6229243;23;20162;-94
2023/03/14 02:38:05;;;;;;;8.27;3.70;;;;;;;;;;6229767;23;20171;-91
2023/03/14 02:41:15;;;;;;;9.23;4.53;;;;;;;;;;6229360;23;20168;-90
2023/03/14 02:44:27;;;;;;;7.47;3.60;;;;;;;;;;6227370;23;20175;-89
2023/03/14 02:47:33;;;;;;;12.80;4.17;;;;;;;;;;6228276;23;20219;-90
2023/03/14 02:50:39;;;;;;;7.00;3.90;;;;;;;;;;6229315;23;20238;-92
2023/03/14 02:53:44;;;;;;;10.53;4.03;;;;;;;;;;6229308;23;20195;-91
2023/03/14 02:56:51;;;;;;;10.80;4.00;;;;;;;;;;6229518;23;20206;-90
2023/03/14 03:00:01;;;;;;;8.33;3.60;;;;;;;;;;6228844;23;20211;-91
2023/03/14 03:03:32;;;;;;;9.83;3.83;;;;;;;;;;6230380;23;20226;-90
2023/03/14 03:06:37;;;;;;;10.33;4.30;;;;;;;;;;6232103;23;20159;-91
2023/03/14 03:09:44;;;;;;;10.87;4.07;;;;;;;;;;6237902;23;20210;-92
2023/03/14 03:12:51;;;;;;;9.57;3.77;;;;;;;;;;6237502;23;20198;-91
2023/03/14 03:16:02;;;;;;;7.68;4.18;;;;;;;;;;6238588;23;20187;-88
2023/03/14 03:19:07;;;;;;;8.37;4.00;;;;;;;;;;6239469;23;20239;-90
2023/03/14 03:22:30;;;;;;;8.30;4.07;;;;;;;;;;6257576;22;20175;-92
2023/03/14 03:25:36;;;;;;;9.73;4.40;;;;;;;;;;6234920;23;20175;-91
2023/03/14 03:28:43;;;;;;;9.73;4.57;;;;;;;;;;6239378;23;20171;-90
2023/03/14 03:31:52;;;;;;;20.17;9.00;;;;;;;;;;6238316;23;20187;-89
2023/03/14 03:34:58;;;;;;;9.63;4.33;;;;;;;;;;6239714;23;20167;-88
2023/03/14 03:38:05;;;;;;;7.73;4.23;;;;;;;;;;6241031;23;20244;-91
2023/03/14 03:41:11;;;;;;;9.30;4.17;;;;;;;;;;6231447;23;20163;-91
2023/03/14 03:44:17;;;;;;;11.20;4.30;;;;;;;;;;6238181;23;20186;-91
2023/03/14 03:47:25;;;;;;;9.38;4.35;;;;;;;;;;6239204;23;20280;-88
2023/03/14 03:50:31;;;;;;;11.50;4.93;;;;;;;;;;6221310;23;20175;-93
2023/03/14 03:53:37;;;;;;;11.67;4.40;;;;;;;;;;6232123;23;20190;-88
2023/03/14 03:56:47;;;;;;;12.63;5.03;;;;;;;;;;6238016;23;20191;-90
2023/03/14 03:59:53;;;;;;;13.43;4.90;;;;;;;;;;6247678;23;20171;-90
2023/03/14 04:02:59;;;;;;;13.87;4.90;;;;;;;;;;6226299;23;20497;-93
2023/03/14 04:06:06;;;;;;;9.77;4.90;;;;;;;;;;6229398;23;20179;-91
2023/03/14 04:09:14;;;;;;;10.40;4.70;;;;;;;;;;6232659;23;20232;-91
2023/03/14 04:12:25;;;;;;;12.80;4.77;;;;;;;;;;6236819;23;20171;-90
2023/03/14 04:15:48;;;;;;;11.87;4.37;;;;;;;;;;6224572;23;20178;-91
2023/03/14 04:19:02;;;;;;;12.53;4.67;;;;;;;;;;6247210;23;20166;-91
2023/03/14 04:22:41;;;;;;;10.13;4.70;;;;;;;;;;6227305;23;20171;-91
2023/03/14 04:25:46;;;;;;;12.90;5.50;;;;;;;;;;6227939;23;20163;-90
2023/03/14 04:28:52;;;;;;;13.63;5.20;;;;;;;;;;6227353;23;20159;-91
2023/03/14 04:32:00;;;;;;;9.77;5.20;;;;;;;;;;6228509;23;20174;-92
2023/03/14 04:35:08;;;;;;;11.10;5.67;;;;;;;;;;6229178;23;20614;-91
2023/03/14 04:38:13;;;;;;;13.50;5.37;;;;;;;;;;6228179;23;20175;-92
2023/03/14 04:41:21;;;;;;;13.43;5.30;;;;;;;;;;6227795;23;20167;-96
2023/03/14 04:44:31;;;;;;;14.67;5.67;;;;;;;;;;6232038;23;20156;-90
2023/03/14 04:47:38;;;;;;;14.13;6.07;;;;;;;;;;6211736;23;20167;-88
2023/03/14 04:50:46;;;;;;;14.07;6.57;;;;;;;;;;6232246;23;20191;-90
2023/03/14 04:53:51;;;;;;;14.27;6.30;;;;;;;;;;6232971;23;20187;-93
2023/03/14 04:56:57;;;;;;;18.27;7.57;;;;;;;;;;6231812;23;20275;-94
2023/03/14 05:00:07;;;;;;;10.83;5.50;;;;;;;;;;6232699;23;20193;-92
2023/03/14 05:07:28;;;;;;;12.53;5.47;;;;;;;;;;6219974;23;20194;-90
2023/03/14 05:10:55;;;;;;;11.37;5.03;;;;;;;;;;6231684;23;20636;-91
2023/03/14 05:14:32;;;;;;;13.87;5.33;;;;;;;;;;6230964;23;20199;-95
2023/03/14 05:17:56;;;;;;;11.00;5.03;;;;;;;;;;6232196;23;20172;-93
2023/03/14 05:21:20;;;;;;;13.60;5.00;;;;;;;;;;6231954;23;20183;-94
2023/03/14 05:24:58;;;;;;;11.23;4.90;;;;;;;;;;6231750;23;20495;-93
2023/03/14 05:28:30;;;;;;;15.07;5.43;;;;;;;;;;6233419;23;20346;-93
2023/03/14 05:31:46;;;;;;;12.33;5.00;;;;;;;;;;6233847;23;20619;-93
2023/03/14 05:35:22;;;;;;;10.27;6.00;;;;;;;;;;6234841;23;20244;-91
2023/03/14 05:38:28;;;;;;;11.87;5.73;;;;;;;;;;6234507;23;20183;-90
2023/03/14 05:41:53;;;;;;;18.77;5.87;;;;;;;;;;6233701;23;20263;-92
2023/03/14 05:45:17;;;;;;;15.47;5.70;;;;;;;;;;6234574;23;20170;-88
2023/03/14 05:49:01;;;;;;;16.77;7.27;;;;;;;;;;6143419;23;20169;-90
2023/03/14 05:52:17;;;;;;;16.40;6.83;;;;;;;;;;6132680;23;20153;-91
2023/03/14 05:55:46;;;;;;;16.30;6.97;;;;;;;;;;6215367;23;20241;-90
2023/03/14 05:59:14;;;;;;;14.87;6.30;;;;;;;;;;6234795;23;20166;-91
2023/03/14 06:02:35;;;;;;;13.73;5.00;;;;;;;;;;6253546;23;20175;-91
2023/03/14 06:05:58;;;;;;;11.77;5.40;;;;;;;;;;6234445;23;20325;-89
2023/03/14 06:09:04;;;;;;;13.97;5.90;;;;;;;;;;6234527;23;20164;-94
2023/03/14 06:12:12;;;;;;;11.10;5.77;;;;;;;;;;6234808;23;20171;-92
2023/03/14 06:15:43;;;;;;;14.20;4.77;;;;;;;;;;6235581;23;20175;-89
2023/03/14 06:18:50;;;;;;;8.33;4.57;;;;;;;;;;6253738;22;20206;-90
2023/03/14 06:22:19;;;;;;;12.53;5.23;;;;;;;;;;6235569;23;20170;-90
2023/03/14 06:25:26;;;;;;;18.90;6.03;;;;;;;;;;6236790;23;20166;-91
2023/03/14 06:28:32;;;;;;;10.90;5.33;;;;;;;;;;6235072;23;20159;-92
2023/03/14 06:35:02;;;;;;;11.33;4.97;;;;;;;;;;6233044;23;20195;-89
2023/03/14 06:38:14;;;;;;;12.47;6.37;;;;;;;;;;6234501;23;20172;-90
2023/03/14 06:41:23;;;;;;;16.47;6.37;;;;;;;;;;6234376;23;20171;-92
2023/03/14 06:44:29;;;;;;;17.23;5.30;;;;;;;;;;6216270;23;20183;-92
2023/03/14 06:47:37;;;;;;;15.47;5.43;;;;;;;;;;6248344;23;20168;-90
2023/03/14 06:50:43;;;;;;;13.67;5.40;;;;;;;;;;6234975;23;20172;-90
2023/03/14 06:53:50;;;;;;;12.47;5.50;;;;;;;;;;6235027;23;20179;-92
2023/03/14 06:56:57;;;;;;;11.17;4.87;;;;;;;;;;6253641;23;20224;-90
2023/03/14 07:00:03;;;;;;;15.87;5.03;;;;;;;;;;6235891;23;20168;-88
2023/03/14 07:03:18;;;;;;;15.17;5.83;;;;;;;;;;6234885;23;20634;-91
2023/03/14 07:06:29;;;;;;;15.77;6.37;;;;;;;;;;6232703;23;20215;-91
2023/03/14 07:09:34;;;;;;;14.93;6.10;;;;;;;;;;6234959;23;20151;-89
2023/03/14 07:12:45;;;;;;;13.80;5.60;;;;;;;;;;6251677;23;20178;-93
2023/03/14 07:15:51;;;;;;;15.00;5.65;;;;;;;;;;6234288;23;20223;-93
2023/03/14 07:18:58;;;;;;;10.45;4.93;;;;;;;;;;6235415;23;20155;-93
2023/03/14 07:22:06;;;;;;;7.78;3.90;;;;;;;;;;6233923;23;20166;-90
2023/03/14 07:25:13;;;;;;;7.03;2.60;;;;;;;;;;6234307;23;20151;-91
2023/03/14 07:28:19;;;;;;;3.55;1.85;;;;;;;;;;6251920;23;20183;-91
2023/03/14 07:31:27;;;;;;;15.00;6.10;;;;;;;;;;6235900;23;20168;-90
2023/03/14 07:34:34;;;;;;;10.35;4.18;;;;;;;;;;6235114;23;20187;-94
2023/03/14 07:37:39;;;;;;;11.32;5.05;;;;;;;;;;6235861;23;20215;-93
2023/03/14 07:40:45;;;;;;;7.95;2.10;;;;;;;;;;6235233;23;20491;-92
2023/03/14 07:43:51;;;;;;;16.75;7.88;;;;;;;;;;6236925;23;20227;-90
2023/03/14 07:46:56;;;;;;;13.23;5.40;;;;;;;;;;6253262;23;20215;-89
2023/03/14 07:50:03;;;;;;;29.48;12.90;;;;;;;;;;6234913;23;20247;-89
2023/03/14 07:53:09;;;;;;;10.07;4.40;;;;;;;;;;6235130;23;20163;-89
2023/03/14 07:56:14;;;;;;;3.95;2.00;;;;;;;;;;6251504;22;20204;-91
2023/03/14 07:59:20;;;;;;;14.73;5.50;;;;;;;;;;6232716;23;20163;-91
2023/03/14 08:02:30;;;;;;;6.30;2.20;;;;;;;;;;6234425;23;20243;-90
2023/03/14 08:05:38;;;;;;;3.22;1.70;;;;;;;;;;6250437;23;20163;-90
2023/03/14 08:08:43;;;;;;;4.07;1.27;;;;;;;;;;6232285;23;20170;-91
2023/03/14 08:11:48;;;;;;;5.20;1.80;;;;;;;;;;6232013;23;20170;-90
2023/03/14 08:14:54;;;;;;;7.05;1.30;;;;;;;;;;6231277;23;20174;-88
2023/03/14 08:18:02;;;;;;;1.85;1.00;;;;;;;;;;6232015;23;20155;-89
2023/03/14 08:21:19;;;;;;;3.20;1.10;;;;;;;;;;6233022;23;20166;-91
2023/03/14 08:24:24;;;;;;;3.30;1.20;;;;;;;;;;6232774;23;20226;-88
2023/03/14 08:27:29;;;;;;;2.90;1.70;;;;;;;;;;6232116;23;20171;-91
2023/03/14 08:30:34;;;;;;;3.60;1.33;;;;;;;;;;6249286;23;20195;-89
2023/03/14 08:33:40;;;;;;;1.45;1.05;;;;;;;;;;6232922;23;20239;-91
2023/03/14 08:36:47;;;;;;;9.45;1.85;;;;;;;;;;6232901;23;20214;-90
2023/03/14 08:39:53;;;;;;;4.65;1.08;;;;;;;;;;6234119;23;20494;-91
2023/03/14 08:42:59;;;;;;;2.40;1.17;;;;;;;;;;6232961;23;20181;-96
2023/03/14 08:46:05;;;;;;;11.50;1.80;;;;;;;;;;6248850;22;20625;-91
2023/03/14 08:49:12;;;;;;;2.40;1.20;;;;;;;;;;6231077;23;20191;-91
2023/03/14 08:52:23;;;;;;;3.22;1.20;;;;;;;;;;6236610;23;20191;-88
2023/03/14 08:55:29;;;;;;;3.25;0.93;;;;;;;;;;6230745;23;20242;-90
2023/03/14 08:58:36;;;;;;;12.88;7.18;;;;;;;;;;6231427;23;20171;-91
2023/03/14 09:01:43;;;;;;;1.80;1.40;;;;;;;;;;6231123;23;20166;-92
2023/03/14 09:04:49;;;;;;;4.75;1.60;;;;;;;;;;6232387;23;20159;-93
2023/03/14 09:07:56;;;;;;;4.25;1.75;;;;;;;;;;6234095;23;20191;-90
2023/03/14 09:11:02;;;;;;;8.43;3.78;;;;;;;;;;6232502;23;20594;-93
2023/03/14 09:14:08;;;;;;;21.67;7.00;;;;;;;;;;6234538;23;20210;-92
2023/03/14 09:17:13;;;;;;;13.40;4.90;;;;;;;;;;6233833;23;20175;-91
2023/03/14 09:20:19;;;;;;;4.18;2.22;;;;;;;;;;6235335;23;20155;-90
2023/03/14 09:23:27;;;;;;;5.15;2.90;;;;;;;;;;6234606;23;20191;-90
2023/03/14 09:26:32;;;;;;;4.40;2.00;;;;;;;;;;6235419;23;20627;-91
2023/03/14 09:29:38;;;;;;;8.00;2.95;;;;;;;;;;6234440;23;20247;-91
2023/03/14 09:32:44;;;;;;;4.28;1.80;;;;;;;;;;6233822;23;20171;-91
2023/03/14 09:35:49;;;;;;;4.78;1.30;;;;;;;;;;6233474;23;20187;-91
2023/03/14 09:38:56;;;;;;;4.43;1.45;;;;;;;;;;6235342;23;20171;-91
2023/03/14 09:42:04;;;;;;;4.68;2.10;;;;;;;;;;6235906;23;20175;-91
2023/03/14 09:45:14;;;;;;;2.78;1.70;;;;;;;;;;6235210;23;20171;-92
2023/03/14 09:48:21;;;;;;;7.25;1.85;;;;;;;;;;6234969;23;20171;-90
2023/03/14 09:51:27;;;;;;;2.45;1.20;;;;;;;;;;6234416;23;20171;-91
2023/03/14 09:54:37;;;;;;;3.40;1.30;;;;;;;;;;6232415;23;20194;-89
2023/03/14 09:57:45;;;;;;;3.38;1.40;;;;;;;;;;6234023;23;20619;-91
2023/03/14 10:00:58;;;;;;;2.67;1.50;;;;;;;;;;6233846;23;20167;-93
2023/03/14 10:04:08;;;;;;;2.33;1.35;;;;;;;;;;6254379;22;20167;-90
2023/03/14 10:07:19;;;;;;;4.75;1.30;;;;;;;;;;6238611;23;20178;-91
2023/03/14 10:10:27;;;;;;;6.35;1.80;;;;;;;;;;6255206;23;20155;-92
2023/03/14 10:13:37;;;;;;;8.30;4.35;;;;;;;;;;6238272;23;20188;-90
2023/03/14 10:16:46;;;;;;;4.18;1.48;;;;;;;;;;6236310;23;20175;-88
2023/03/14 10:19:56;;;;;;;6.72;2.25;;;;;;;;;;6236396;23;20618;-90
2023/03/14 10:23:02;;;;;;;4.45;1.60;;;;;;;;;;6234610;23;20228;-89
2023/03/14 10:26:18;;;;;;;4.30;1.17;;;;;;;;;;6235976;23;20163;-92
2023/03/14 10:29:26;;;;;;;3.05;1.23;;;;;;;;;;6257349;22;20191;-90
2023/03/14 10:32:34;;;;;;;2.17;1.10;;;;;;;;;;6234697;23;20171;-92
2023/03/14 10:35:39;;;;;;;2.13;1.00;;;;;;;;;;6250862;22;20231;-91
2023/03/14 10:38:45;;;;;;;3.53;1.23;;;;;;;;;;6233693;23;20175;-89
2023/03/14 10:41:53;;;;;;;3.45;1.20;;;;;;;;;;6233844;23;20171;-90
2023/03/14 10:45:00;;;;;;;2.83;1.25;;;;;;;;;;6252059;23;20171;-90
2023/03/14 10:48:20;;;;;;;2.53;1.00;;;;;;;;;;6234326;23;20198;-92
2023/03/14 10:51:26;;;;;;;3.55;1.10;;;;;;;;;;6235475;23;20198;-92
2023/03/14 10:54:32;;;;;;;3.13;1.40;;;;;;;;;;6250896;23;20191;-90
2023/03/14 10:57:42;;;;;;;1.85;1.23;;;;;;;;;;6234343;23;20171;-91
2023/03/14 11:00:55;;;;;;;2.33;1.15;;;;;;;;;;6234057;23;20175;-91
2023/03/14 11:04:04;;;;;;;2.67;1.20;;;;;;;;;;6251762;23;20240;-91
2023/03/14 11:07:14;;;;;;;1.83;1.10;;;;;;;;;;6232338;23;20214;-91
2023/03/14 11:10:22;;;;;;;3.33;1.13;;;;;;;;;;6232632;23;20175;-92
2023/03/14 11:13:37;;;;;;;1.50;0.90;;;;;;;;;;6233108;23;20163;-90
2023/03/14 11:16:49;;;;;;;2.65;1.20;;;;;;;;;;6252253;23;20246;-92
2023/03/14 11:20:19;;;;;;;3.65;1.50;;;;;;;;;;6252160;23;20155;-91
2023/03/14 11:23:25;;;;;;;4.15;1.30;;;;;;;;;;6233965;23;20200;-90
2023/03/14 11:26:39;;;;;;;7.50;1.35;;;;;;;;;;6232933;23;20226;-90
2023/03/14 11:29:53;;;;;;;1.88;1.10;;;;;;;;;;6216216;23;20194;-94
2023/03/14 11:33:03;;;;;;;2.40;0.88;;;;;;;;;;6232898;23;20171;-93
2023/03/14 11:36:10;;;;;;;5.57;1.13;;;;;;;;;;6235189;23;20207;-90
2023/03/14 11:39:27;;;;;;;;;;;;;;;;;;;;;
2023/03/14 11:42:37;;;;;;;2.40;0.80;;;;;;;;;;6233158;23;20167;-92
2023/03/14 11:45:50;;;;;;;3.08;0.82;;;;;;;;;;6234091;23;20171;-89
2023/03/14 11:49:03;;;;;;;1.95;0.80;;;;;;;;;;6232795;23;20166;-90
2023/03/14 11:52:15;;;;;;;1.35;0.85;;;;;;;;;;6232867;23;20396;-90
2023/03/14 11:55:22;;;;;;;4.93;0.80;;;;;;;;;;6232525;23;20186;-90
2023/03/14 11:58:32;;;;;;;4.60;1.05;;;;;;;;;;6233002;23;20175;-92
2023/03/14 12:01:53;;;;;;;1.67;0.80;;;;;;;;;;6232355;23;20179;-90
2023/03/14 12:05:26;;;;;;;1.95;0.77;;;;;;;;;;6232963;23;20631;-92
2023/03/14 12:08:41;;;;;;;0.68;0.60;;;;;;;;;;6234181;23;20168;-91
2023/03/14 12:11:51;;;;;;;1.35;0.88;;;;;;;;;;6234104;23;20500;-90
2023/03/14 12:15:00;;;;;;;0.90;0.55;;;;;;;;;;6236117;23;20190;-89
2023/03/14 12:18:20;;;;;;;1.38;0.70;;;;;;;;;;6232663;23;20163;-92
2023/03/14 12:21:29;;;;;;;1.88;0.80;;;;;;;;;;6233420;23;20196;-93
2023/03/14 12:24:38;;;;;;;2.85;0.80;;;;;;;;;;6252029;23;20187;-91
2023/03/14 12:27:49;;;;;;;5.35;0.80;;;;;;;;;;6232630;23;20234;-92
2023/03/14 12:30:54;;;;;;;2.03;0.60;;;;;;;;;;6233618;23;20237;-92
2023/03/14 12:34:29;;;;;;;1.48;0.75;;;;;;;;;;6231996;23;20170;-90
2023/03/14 12:37:37;;;;;;;1.92;0.77;;;;;;;;;;6233875;23;20167;-92
2023/03/14 12:44:43;;;;;;;0.93;0.70;;;;;;;;;;6231983;23;20175;-91
2023/03/14 12:47:56;;;;;;;2.03;0.60;;;;;;;;;;6232509;23;20589;-90
2023/03/14 12:51:07;;;;;;;3.35;0.80;;;;;;;;;;6234733;23;20171;-91
2023/03/14 12:54:23;;;;;;;0.93;0.60;;;;;;;;;;6234332;23;20168;-92
2023/03/14 12:57:30;;;;;;;1.33;0.70;;;;;;;;;;6235645;23;20155;-90
2023/03/14 13:00:36;;;;;;;6.38;1.20;;;;;;;;;;6234656;23;20168;-93
2023/03/14 13:03:56;;;;;;;2.17;1.00;;;;;;;;;;6235674;23;20222;-94
2023/03/14 13:07:06;;;;;;;2.72;0.80;;;;;;;;;;6237090;23;20171;-92
2023/03/14 13:10:20;;;;;;;5.00;0.90;;;;;;;;;;6235140;23;20244;-91
2023/03/14 13:13:27;;;;;;;2.15;0.55;;;;;;;;;;6236099;23;20150;-94
2023/03/14 13:16:32;;;;;;;3.03;0.65;;;;;;;;;;6236216;23;20195;-87
2023/03/14 13:19:42;;;;;;;1.67;1.15;;;;;;;;;;6254490;23;20223;-91
2023/03/14 13:22:51;;;;;;;3.20;1.02;;;;;;;;;;6235285;23;20211;-92
2023/03/14 13:25:57;;;;;;;3.47;0.90;;;;;;;;;;6235221;23;20159;-89
2023/03/14 13:29:10;;;;;;;2.28;0.73;;;;;;;;;;6236077;23;20171;-90
2023/03/14 13:32:19;;;;;;;2.03;0.82;;;;;;;;;;6237817;23;20155;-91
2023/03/14 13:35:26;;;;;;;1.40;0.70;;;;;;;;;;6232128;23;20206;-92
2023/03/14 13:38:34;;;;;;;1.23;0.80;;;;;;;;;;6254313;23;20175;-89
2023/03/14 13:41:40;;;;;;;2.03;0.70;;;;;;;;;;6235254;23;20191;-90
